Terminal Aerodrome Forecast
Issued by NWS Charleston, WV

Current Version | Previous Version | Graphics & Text | Print | Product List | Glossary On
Versions: 1 2 3 4 5 6 7 8 9 10 11 12 13 14 15 16 17 18 19 20 21 22 23
000
FTUS41 KRLX 251700
TAFCRW
TAF
KCRW 251740Z 2518/2618 24009G16KT P6SM FEW050
     FM252000 28007KT P6SM FEW050
     FM260800 04004KT 6SM -RA BR OVC040
     FM260900 05004KT 4SM -RA BR OVC030
     FM261200 00000KT 3SM -RASN BR OVC010
     FM261600 00000KT P6SM OVC020=

USA.gov is the U.S. government's official web portal to all federal, state and local government web resources and services.